Wrangell, AK

2:09 AM AKST on December 12, 2017 (GMT -0900)
Wrangell

Weather History for PAWG - January, 2014

Change the Weather History Date:

Thursday, January 16, 2014

  Actual Average Record
Temperature  
Mean Temperature 44 °F -  
Max Temperature 46 °F 34 °F 58 °F (1981)
Min Temperature 42 °F 23 °F 0 °F (1971)
Degree Days  
Heating Degree Days 21    
Moisture  
Dew Point 37 °F    
Average Humidity 77    
Maximum Humidity 87    
Minimum Humidity 71    
Precipitation  
Precipitation 0.12 in - - ()
Sea Level Pressure  
Sea Level Pressure 30.25 in    
Wind  
Wind Speed 13 mph (ESE)    
Max Wind Speed 18 mph    
Max Gust Speed 24 mph    
Visibility 9 miles    
Events      
Averages and records for this station are not official NWS values.
T = Trace of Precipitation, MM = Missing Value Source: NWS Daily Summary

Daily Weather History Graph

Daily Weather History Graph

Search for Another Location

Airport or City:

Trip Planner

Search our weather history database for the weather conditions in past years. The results will help you decide how hot, cold, wet, or windy it might be!

Date:

Astronomy

Jan. 16, 2014 Rise Set
Actual Time 8:11 AM AKST 3:47 PM AKST
Civil Twilight 7:26 AM AKST 4:32 PM AKST
Nautical Twilight 6:39 AM AKST 5:20 PM AKST
Astronomical Twilight 5:53 AM AKST 6:05 PM AKST
Moon 5:07 PM AKST (1/16) 7:50 AM AKST (1/16)
Length of Visible Light 9h 05m
Length of Day
7h 35m
Full, 100% of the Moon is Illuminated
Jan 16
Full
Jan 23
Last Quarter
Jan 30
New
Feb 6
First Quarter
Feb 14
Full

Hourly Weather History & Observations

Time (AKST) Temp. Windchill Dew Point Humidity Pressure Visibility Wind Dir Wind Speed Gust Speed Precip Events Conditions
12:16 AM 42.8 °F 35.1 °F 37.4 °F 81% 30.28 in 10.0 mi East 16.1 mph 23.0 mph N/A   Overcast
12:36 AM 42.8 °F 35.4 °F 37.4 °F 81% 30.28 in 9.0 mi East 15.0 mph - N/A   Overcast
12:56 AM 44.6 °F 37.8 °F 37.4 °F 76% 30.28 in 9.0 mi ESE 15.0 mph 24.2 mph N/A   Overcast
1:16 AM 44.6 °F 37.8 °F 35.6 °F 71% 30.28 in 10.0 mi ESE 15.0 mph 20.7 mph 0.01 in   Overcast
1:36 AM 44.6 °F 38.4 °F 37.4 °F 76% 30.29 in 10.0 mi SE 12.7 mph 19.6 mph 0.01 in   Overcast
1:56 AM 44.6 °F 39.7 °F 35.6 °F 71% 30.29 in 10.0 mi SSE 9.2 mph 19.6 mph 0.01 in   Overcast
2:16 AM 44.6 °F 37.8 °F 37.4 °F 76% 30.28 in 10.0 mi SE 15.0 mph 21.9 mph 0.01 in   Overcast
2:36 AM 44.6 °F 41.4 °F 37.4 °F 76% 30.30 in 10.0 mi SE 5.8 mph - 0.01 in   Overcast
2:56 AM 42.8 °F 37.0 °F 37.4 °F 81% 30.29 in 10.0 mi East 10.4 mph 16.1 mph 0.01 in   Overcast
3:16 AM 42.8 °F 36.2 °F 37.4 °F 81% 30.29 in 10.0 mi ESE 12.7 mph 17.3 mph N/A   Overcast
3:36 AM 42.8 °F 36.6 °F 37.4 °F 81% 30.29 in 10.0 mi East 11.5 mph 19.6 mph N/A   Mostly Cloudy
3:56 AM 42.8 °F 36.2 °F 37.4 °F 81% 30.28 in 10.0 mi ESE 12.7 mph - N/A   Overcast
4:16 AM 42.8 °F 35.4 °F 37.4 °F 81% 30.27 in 10.0 mi East 15.0 mph - N/A   Overcast
4:36 AM 42.8 °F 36.6 °F 37.4 °F 81% 30.27 in 10.0 mi East 11.5 mph 16.1 mph N/A   Overcast
4:56 AM 42.8 °F 36.2 °F 37.4 °F 81% 30.25 in 10.0 mi East 12.7 mph - N/A   Overcast
5:16 AM 42.8 °F 34.8 °F 37.4 °F 81% 30.23 in 10.0 mi East 17.3 mph 21.9 mph N/A   Overcast
5:36 AM 42.8 °F - 37.4 °F 81% 30.25 in 10.0 mi Calm Calm - N/A   Overcast
5:56 AM 42.8 °F 35.4 °F 37.4 °F 81% 30.23 in 10.0 mi East 15.0 mph - N/A   Overcast
6:16 AM 42.8 °F 37.0 °F 37.4 °F 81% 30.22 in 10.0 mi SSE 10.4 mph 17.3 mph N/A   Overcast
6:36 AM 42.8 °F 35.1 °F 37.4 °F 81% 30.21 in 10.0 mi East 16.1 mph - N/A   Overcast
6:56 AM 42.8 °F 36.6 °F 37.4 °F 81% 30.21 in 10.0 mi East 11.5 mph - N/A   Overcast
7:16 AM 42.8 °F 36.6 °F 37.4 °F 81% 30.21 in 10.0 mi East 11.5 mph - N/A   Overcast
7:36 AM 42.8 °F 38.6 °F 37.4 °F 81% 30.22 in 10.0 mi SE 6.9 mph - N/A   Overcast
7:56 AM 42.8 °F - 37.4 °F 81% 30.22 in 9.0 mi Calm Calm - N/A   Overcast
8:16 AM 42.8 °F 39.3 °F 37.4 °F 81% 30.22 in 9.0 mi East 5.8 mph - N/A   Overcast
8:36 AM 42.8 °F 38.0 °F 39.2 °F 87% 30.22 in 9.0 mi SE 8.1 mph - N/A   Overcast
8:56 AM 42.8 °F 40.1 °F 37.4 °F 81% 30.22 in 8.0 mi ESE 4.6 mph - 0.01 in   Overcast
9:16 AM 44.6 °F 40.2 °F 39.2 °F 81% 30.23 in 8.0 mi ENE 8.1 mph - N/A   Overcast
9:36 AM 44.6 °F - 39.2 °F 81% 30.23 in 8.0 mi Calm Calm - 0.01 in   Overcast
9:56 AM 44.6 °F 43.1 °F 39.2 °F 81% 30.23 in 8.0 mi NNW 3.5 mph - 0.02 in   Overcast
10:16 AM 44.6 °F 42.2 °F 39.2 °F 81% 30.23 in 8.0 mi South 4.6 mph - 0.01 in   Overcast
10:36 AM 46.4 °F 40.4 °F 39.2 °F 76% 30.22 in 8.0 mi ESE 13.8 mph - 0.01 in   Overcast
10:56 AM 46.4 °F 39.8 °F 37.4 °F 71% 30.22 in 10.0 mi ESE 16.1 mph 19.6 mph 0.01 in   Overcast
11:16 AM 46.4 °F 39.8 °F 37.4 °F 71% 30.22 in 10.0 mi ESE 16.1 mph - 0.01 in   Overcast
11:36 AM 46.4 °F 40.1 °F 37.4 °F 71% 30.22 in 6.0 mi ESE 15.0 mph 19.6 mph 0.01 in   Overcast
11:56 AM 46.4 °F 40.1 °F 39.2 °F 76% 30.21 in 7.0 mi ESE 15.0 mph 18.4 mph 0.01 in   Overcast
12:16 PM 46.4 °F 40.7 °F 37.4 °F 71% 30.22 in 10.0 mi SE 12.7 mph 19.6 mph N/A   Overcast
12:36 PM 46.4 °F 41.5 °F 37.4 °F 71% 30.23 in 8.0 mi ESE 10.4 mph - N/A   Overcast
12:56 PM 44.6 °F 38.8 °F 37.4 °F 76% 30.23 in 7.0 mi ESE 11.5 mph - 0.01 in   Overcast
1:16 PM 44.6 °F 37.4 °F 37.4 °F 76% 30.22 in 7.0 mi ESE 16.1 mph - 0.02 in   Overcast
1:36 PM 44.6 °F 37.4 °F 37.4 °F 76% 30.23 in 8.0 mi ESE 16.1 mph 21.9 mph 0.03 in   Overcast
1:56 PM 44.6 °F 37.8 °F 37.4 °F 76% 30.23 in 10.0 mi ESE 15.0 mph - 0.03 in   Overcast
2:16 PM 44.6 °F 37.4 °F 37.4 °F 76% 30.23 in 10.0 mi East 16.1 mph 24.2 mph N/A   Overcast
2:36 PM 44.6 °F 37.2 °F 37.4 °F 76% 30.23 in 10.0 mi ESE 17.3 mph 20.7 mph N/A   Overcast
2:56 PM 44.6 °F 37.4 °F 37.4 °F 76% 30.24 in 10.0 mi ESE 16.1 mph 21.9 mph N/A   Overcast
3:16 PM 44.6 °F 37.8 °F 37.4 °F 76% 30.24 in 7.0 mi ESE 15.0 mph 23.0 mph N/A   Overcast
3:36 PM 44.6 °F 37.2 °F 35.6 °F 71% 30.24 in 7.0 mi ESE 17.3 mph 23.0 mph 0.01 in   Overcast
3:56 PM 44.6 °F 36.9 °F 35.6 °F 71% 30.25 in 7.0 mi ESE 18.4 mph 24.2 mph 0.01 in   Overcast
4:16 PM 44.6 °F 36.9 °F 37.4 °F 76% 30.25 in 7.0 mi ESE 18.4 mph - N/A   Overcast
4:36 PM 44.6 °F 37.4 °F 37.4 °F 76% 30.25 in 7.0 mi ESE 16.1 mph - N/A   Overcast
4:56 PM 44.6 °F 37.4 °F 35.6 °F 71% 30.25 in 7.0 mi ESE 16.1 mph 24.2 mph N/A   Overcast
5:16 PM 44.6 °F 37.4 °F 35.6 °F 71% 30.25 in 7.0 mi ESE 16.1 mph - N/A   Overcast
5:36 PM 44.6 °F 37.2 °F 35.6 °F 71% 30.24 in 7.0 mi ESE 17.3 mph 23.0 mph N/A   Overcast
5:56 PM 44.6 °F 37.8 °F 35.6 °F 71% 30.24 in 7.0 mi ESE 15.0 mph 23.0 mph N/A   Overcast
6:16 PM 44.6 °F 37.8 °F 35.6 °F 71% 30.24 in 7.0 mi ESE 15.0 mph 19.6 mph N/A   Overcast
6:36 PM 44.6 °F 37.2 °F 35.6 °F 71% 30.24 in 7.0 mi ESE 17.3 mph 21.9 mph N/A   Overcast
6:56 PM 44.6 °F 38.1 °F 35.6 °F 71% 30.24 in 7.0 mi ESE 13.8 mph 19.6 mph N/A   Overcast
7:16 PM 44.6 °F 37.8 °F 35.6 °F 71% 30.24 in 7.0 mi SE 15.0 mph - N/A   Overcast
7:36 PM 44.6 °F 37.4 °F 37.4 °F 76% 30.24 in 7.0 mi ESE 16.1 mph 20.7 mph N/A   Overcast
7:56 PM 44.6 °F 38.1 °F 35.6 °F 71% 30.24 in 10.0 mi ESE 13.8 mph 21.9 mph N/A   Overcast
8:16 PM 44.6 °F 38.1 °F 37.4 °F 76% 30.24 in 10.0 mi ESE 13.8 mph - N/A   Overcast
8:36 PM 44.6 °F 37.4 °F 37.4 °F 76% 30.25 in 10.0 mi ESE 16.1 mph 21.9 mph N/A   Overcast
8:56 PM 42.8 °F 35.4 °F 37.4 °F 81% 30.25 in 10.0 mi East 15.0 mph - N/A   Overcast
9:16 PM 44.6 °F 38.8 °F 37.4 °F 76% 30.26 in 10.0 mi ESE 11.5 mph 19.6 mph N/A   Overcast
9:36 PM 42.8 °F 35.8 °F 37.4 °F 81% 30.26 in 10.0 mi East 13.8 mph - N/A   Overcast
9:56 PM 42.8 °F 36.2 °F 37.4 °F 81% 30.27 in 10.0 mi East 12.7 mph - N/A   Overcast
10:16 PM 42.8 °F 36.6 °F 37.4 °F 81% 30.27 in 10.0 mi East 11.5 mph - N/A   Overcast
10:36 PM 42.8 °F 36.6 °F 37.4 °F 81% 30.27 in 10.0 mi East 11.5 mph - N/A   Overcast
10:56 PM 42.8 °F 37.0 °F 37.4 °F 81% 30.27 in 10.0 mi East 10.4 mph - N/A   Overcast
11:16 PM 42.8 °F 37.5 °F 37.4 °F 81% 30.27 in 10.0 mi East 9.2 mph - N/A   Overcast
11:36 PM 42.8 °F 37.0 °F 37.4 °F 81% 30.26 in 10.0 mi East 10.4 mph - N/A   Overcast
11:56 PM 42.8 °F 36.6 °F 37.4 °F 81% 30.25 in 10.0 mi East 11.5 mph - N/A   Overcast